sensor_id;sensor_type;location;lat;lon;timestamp;temperature;humidity
52963;DHT22;38827;53.024;6.596;2024-01-10T00:01:04;-3.50;78.20
52963;DHT22;38827;53.024;6.596;2024-01-10T00:03:29;-3.50;78.10
52963;DHT22;38827;53.024;6.596;2024-01-10T00:06:01;-3.50;78.10
52963;DHT22;38827;53.024;6.596;2024-01-10T00:08:30;-3.50;78.10
52963;DHT22;38827;53.024;6.596;2024-01-10T00:10:58;-3.50;77.90
52963;DHT22;38827;53.024;6.596;2024-01-10T00:13:24;-3.50;77.90
52963;DHT22;38827;53.024;6.596;2024-01-10T00:15:50;-3.50;77.80
52963;DHT22;38827;53.024;6.596;2024-01-10T00:18:15;-3.50;77.70
52963;DHT22;38827;53.024;6.596;2024-01-10T00:20:41;-3.50;77.70
52963;DHT22;38827;53.024;6.596;2024-01-10T00:23:22;-3.50;77.60
52963;DHT22;38827;53.024;6.596;2024-01-10T00:25:48;-3.50;77.40
52963;DHT22;38827;53.024;6.596;2024-01-10T00:28:17;-3.50;77.40
52963;DHT22;38827;53.024;6.596;2024-01-10T00:30:52;-3.50;77.30
52963;DHT22;38827;53.024;6.596;2024-01-10T00:33:33;-3.50;77.30
52963;DHT22;38827;53.024;6.596;2024-01-10T00:36:08;-3.50;77.20
52963;DHT22;38827;53.024;6.596;2024-01-10T00:38:34;-3.50;77.10
52963;DHT22;38827;53.024;6.596;2024-01-10T00:40:59;-3.60;77.00
52963;DHT22;38827;53.024;6.596;2024-01-10T00:43:37;-3.60;77.00
52963;DHT22;38827;53.024;6.596;2024-01-10T00:46:09;-3.60;77.00
52963;DHT22;38827;53.024;6.596;2024-01-10T00:48:35;-3.60;77.00
52963;DHT22;38827;53.024;6.596;2024-01-10T00:51:00;-3.60;76.90
52963;DHT22;38827;53.024;6.596;2024-01-10T00:53:35;-3.60;76.80
52963;DHT22;38827;53.024;6.596;2024-01-10T00:56:13;-3.70;76.80
52963;DHT22;38827;53.024;6.596;2024-01-10T00:58:48;-3.70;76.80
52963;DHT22;38827;53.024;6.596;2024-01-10T01:01:14;-3.70;76.70
52963;DHT22;38827;53.024;6.596;2024-01-10T01:03:49;-3.70;76.60
52963;DHT22;38827;53.024;6.596;2024-01-10T01:06:21;-3.70;76.50
52963;DHT22;38827;53.024;6.596;2024-01-10T01:08:47;-3.70;76.50
52963;DHT22;38827;53.024;6.596;2024-01-10T01:11:13;-3.70;76.40
52963;DHT22;38827;53.024;6.596;2024-01-10T01:13:43;-3.70;76.40
52963;DHT22;38827;53.024;6.596;2024-01-10T01:16:09;-3.70;76.50
52963;DHT22;38827;53.024;6.596;2024-01-10T01:18:38;-3.70;76.60
52963;DHT22;38827;53.024;6.596;2024-01-10T01:21:04;-3.70;76.70
52963;DHT22;38827;53.024;6.596;2024-01-10T01:23:40;-3.80;76.90
52963;DHT22;38827;53.024;6.596;2024-01-10T01:26:18;-3.80;77.10
52963;DHT22;38827;53.024;6.596;2024-01-10T01:28:52;-3.80;77.20
52963;DHT22;38827;53.024;6.596;2024-01-10T01:31:24;-3.90;77.40
52963;DHT22;38827;53.024;6.596;2024-01-10T01:33:57;-3.90;77.50
52963;DHT22;38827;53.024;6.596;2024-01-10T01:36:23;-3.90;77.60
52963;DHT22;38827;53.024;6.596;2024-01-10T01:39:01;-3.90;77.70
52963;DHT22;38827;53.024;6.596;2024-01-10T01:41:29;-3.90;77.70
52963;DHT22;38827;53.024;6.596;2024-01-10T01:44:20;-3.90;77.90
52963;DHT22;38827;53.024;6.596;2024-01-10T01:46:46;-3.90;77.60
52963;DHT22;38827;53.024;6.596;2024-01-10T01:49:18;-4.00;77.60
52963;DHT22;38827;53.024;6.596;2024-01-10T01:51:44;-4.00;77.60
52963;DHT22;38827;53.024;6.596;2024-01-10T01:54:10;-4.00;77.50
52963;DHT22;38827;53.024;6.596;2024-01-10T01:56:37;-4.00;77.50
52963;DHT22;38827;53.024;6.596;2024-01-10T01:59:07;-4.00;77.60
52963;DHT22;38827;53.024;6.596;2024-01-10T02:01:37;-4.00;77.60
52963;DHT22;38827;53.024;6.596;2024-01-10T02:04:22;-4.00;77.60
52963;DHT22;38827;53.024;6.596;2024-01-10T02:06:48;-4.00;77.70
52963;DHT22;38827;53.024;6.596;2024-01-10T02:09:14;-4.00;77.70
52963;DHT22;38827;53.024;6.596;2024-01-10T02:11:40;-4.00;77.90
52963;DHT22;38827;53.024;6.596;2024-01-10T02:14:06;-4.00;77.90
52963;DHT22;38827;53.024;6.596;2024-01-10T02:16:34;-4.00;78.00
52963;DHT22;38827;53.024;6.596;2024-01-10T02:19:01;-4.00;78.10
52963;DHT22;38827;53.024;6.596;2024-01-10T02:21:39;-4.00;78.00
52963;DHT22;38827;53.024;6.596;2024-01-10T02:24:17;-4.00;78.00
52963;DHT22;38827;53.024;6.596;2024-01-10T02:26:55;-4.00;77.90
52963;DHT22;38827;53.024;6.596;2024-01-10T02:29:43;-4.00;78.10
52963;DHT22;38827;53.024;6.596;2024-01-10T02:32:11;-4.00;78.10
52963;DHT22;38827;53.024;6.596;2024-01-10T02:34:52;-4.00;78.10
52963;DHT22;38827;53.024;6.596;2024-01-10T02:37:21;-4.00;78.10
52963;DHT22;38827;53.024;6.596;2024-01-10T02:39:50;-4.00;78.20
52963;DHT22;38827;53.024;6.596;2024-01-10T02:42:16;-4.10;78.20
52963;DHT22;38827;53.024;6.596;2024-01-10T02:44:45;-4.10;78.20
52963;DHT22;38827;53.024;6.596;2024-01-10T02:47:14;-4.00;78.20
52963;DHT22;38827;53.024;6.596;2024-01-10T02:49:46;-4.10;78.10
52963;DHT22;38827;53.024;6.596;2024-01-10T02:52:15;-4.10;78.20
52963;DHT22;38827;53.024;6.596;2024-01-10T02:54:44;-4.10;78.20
52963;DHT22;38827;53.024;6.596;2024-01-10T02:57:15;-4.10;78.20
52963;DHT22;38827;53.024;6.596;2024-01-10T02:59:44;-4.00;78.20
52963;DHT22;38827;53.024;6.596;2024-01-10T03:02:10;-4.10;78.20
52963;DHT22;38827;53.024;6.596;2024-01-10T03:04:35;-4.10;78.30
52963;DHT22;38827;53.024;6.596;2024-01-10T03:07:01;-4.00;78.30
52963;DHT22;38827;53.024;6.596;2024-01-10T03:09:30;-4.00;78.20
52963;DHT22;38827;53.024;6.596;2024-01-10T03:12:02;-4.00;78.20
52963;DHT22;38827;53.024;6.596;2024-01-10T03:14:36;-4.00;78.30
52963;DHT22;38827;53.024;6.596;2024-01-10T03:17:36;-4.00;78.20
52963;DHT22;38827;53.024;6.596;2024-01-10T03:20:15;-4.10;78.20
52963;DHT22;38827;53.024;6.596;2024-01-10T03:22:41;-4.10;78.40
52963;DHT22;38827;53.024;6.596;2024-01-10T03:25:22;-4.10;78.40
52963;DHT22;38827;53.024;6.596;2024-01-10T03:28:00;-4.10;78.40
52963;DHT22;38827;53.024;6.596;2024-01-10T03:30:38;-4.00;78.40
52963;DHT22;38827;53.024;6.596;2024-01-10T03:33:16;-4.00;78.30
52963;DHT22;38827;53.024;6.596;2024-01-10T03:35:51;-4.10;78.40
52963;DHT22;38827;53.024;6.596;2024-01-10T03:38:17;-4.10;78.40
52963;DHT22;38827;53.024;6.596;2024-01-10T03:40:42;-4.10;78.40
52963;DHT22;38827;53.024;6.596;2024-01-10T03:43:14;-4.10;78.40
52963;DHT22;38827;53.024;6.596;2024-01-10T03:45:55;-4.10;78.40
52963;DHT22;38827;53.024;6.596;2024-01-10T03:48:24;-4.10;78.60
52963;DHT22;38827;53.024;6.596;2024-01-10T03:50:59;-4.10;78.50
52963;DHT22;38827;53.024;6.596;2024-01-10T03:53:24;-4.10;78.50
52963;DHT22;38827;53.024;6.596;2024-01-10T03:56:05;-4.10;78.60
52963;DHT22;38827;53.024;6.596;2024-01-10T03:58:31;-4.20;78.60
52963;DHT22;38827;53.024;6.596;2024-01-10T04:01:04;-4.20;78.90
52963;DHT22;38827;53.024;6.596;2024-01-10T04:03:57;-4.20;78.90
52963;DHT22;38827;53.024;6.596;2024-01-10T04:06:38;-4.10;78.90
52963;DHT22;38827;53.024;6.596;2024-01-10T04:09:13;-4.10;78.80
52963;DHT22;38827;53.024;6.596;2024-01-10T04:11:54;-4.10;78.90
52963;DHT22;38827;53.024;6.596;2024-01-10T04:14:28;-4.10;78.90
52963;DHT22;38827;53.024;6.596;2024-01-10T04:16:54;-4.10;79.00
52963;DHT22;38827;53.024;6.596;2024-01-10T04:19:20;-4.10;78.90
52963;DHT22;38827;53.024;6.596;2024-01-10T04:21:59;-4.10;78.90
52963;DHT22;38827;53.024;6.596;2024-01-10T04:24:31;-4.10;79.00
52963;DHT22;38827;53.024;6.596;2024-01-10T04:26:59;-4.10;79.10
52963;DHT22;38827;53.024;6.596;2024-01-10T04:29:25;-4.10;79.10
52963;DHT22;38827;53.024;6.596;2024-01-10T04:31:50;-4.10;79.00
52963;DHT22;38827;53.024;6.596;2024-01-10T04:34:16;-4.10;78.90
52963;DHT22;38827;53.024;6.596;2024-01-10T04:36:45;-4.20;78.90
52963;DHT22;38827;53.024;6.596;2024-01-10T04:39:28;-4.20;78.90
52963;DHT22;38827;53.024;6.596;2024-01-10T04:42:01;-4.20;78.90
52963;DHT22;38827;53.024;6.596;2024-01-10T04:44:40;-4.20;78.90
52963;DHT22;38827;53.024;6.596;2024-01-10T04:47:09;-4.20;79.00
52963;DHT22;38827;53.024;6.596;2024-01-10T04:49:44;-4.20;78.90
52963;DHT22;38827;53.024;6.596;2024-01-10T04:52:25;-4.20;79.00
52963;DHT22;38827;53.024;6.596;2024-01-10T04:55:00;-4.20;78.90
52963;DHT22;38827;53.024;6.596;2024-01-10T04:57:25;-4.20;79.00
52963;DHT22;38827;53.024;6.596;2024-01-10T05:00:03;-4.20;78.90
52963;DHT22;38827;53.024;6.596;2024-01-10T05:02:30;-4.20;78.80
52963;DHT22;38827;53.024;6.596;2024-01-10T05:05:14;-4.20;78.90
52963;DHT22;38827;53.024;6.596;2024-01-10T05:07:45;-4.20;78.80
52963;DHT22;38827;53.024;6.596;2024-01-10T05:10:11;-4.20;79.00
52963;DHT22;38827;53.024;6.596;2024-01-10T05:12:37;-4.20;78.90
52963;DHT22;38827;53.024;6.596;2024-01-10T05:15:03;-4.20;78.90
52963;DHT22;38827;53.024;6.596;2024-01-10T05:17:31;-4.20;78.90
52963;DHT22;38827;53.024;6.596;2024-01-10T05:19:56;-4.20;78.90
52963;DHT22;38827;53.024;6.596;2024-01-10T05:22:22;-4.20;79.10
52963;DHT22;38827;53.024;6.596;2024-01-10T05:24:57;-4.30;79.10
52963;DHT22;38827;53.024;6.596;2024-01-10T05:27:23;-4.20;79.20
52963;DHT22;38827;53.024;6.596;2024-01-10T05:30:01;-4.30;79.10
52963;DHT22;38827;53.024;6.596;2024-01-10T05:32:26;-4.20;79.30
52963;DHT22;38827;53.024;6.596;2024-01-10T05:34:55;-4.20;79.40
52963;DHT22;38827;53.024;6.596;2024-01-10T05:37:20;-4.20;79.40
52963;DHT22;38827;53.024;6.596;2024-01-10T05:39:47;-4.20;79.30
52963;DHT22;38827;53.024;6.596;2024-01-10T05:42:16;-4.20;79.40
52963;DHT22;38827;53.024;6.596;2024-01-10T05:44:42;-4.20;79.50
52963;DHT22;38827;53.024;6.596;2024-01-10T05:47:11;-4.20;79.50
52963;DHT22;38827;53.024;6.596;2024-01-10T05:49:37;-4.30;79.40
52963;DHT22;38827;53.024;6.596;2024-01-10T05:52:03;-4.30;79.50
52963;DHT22;38827;53.024;6.596;2024-01-10T05:54:29;-4.30;79.60
52963;DHT22;38827;53.024;6.596;2024-01-10T05:56:54;-4.30;79.60
52963;DHT22;38827;53.024;6.596;2024-01-10T05:59:20;-4.30;79.70
52963;DHT22;38827;53.024;6.596;2024-01-10T06:01:46;-4.30;79.70
52963;DHT22;38827;53.024;6.596;2024-01-10T06:04:19;-4.30;79.70
52963;DHT22;38827;53.024;6.596;2024-01-10T06:07:04;-4.30;79.80
52963;DHT22;38827;53.024;6.596;2024-01-10T06:09:33;-4.40;79.60
52963;DHT22;38827;53.024;6.596;2024-01-10T06:11:59;-4.40;79.60
52963;DHT22;38827;53.024;6.596;2024-01-10T06:15:02;-4.40;79.60
52963;DHT22;38827;53.024;6.596;2024-01-10T06:17:28;-4.40;79.50
52963;DHT22;38827;53.024;6.596;2024-01-10T06:20:10;-4.40;79.50
52963;DHT22;38827;53.024;6.596;2024-01-10T06:22:38;-4.40;79.50
52963;DHT22;38827;53.024;6.596;2024-01-10T06:25:04;-4.40;79.60
52963;DHT22;38827;53.024;6.596;2024-01-10T06:30:48;-4.40;79.70
52963;DHT22;38827;53.024;6.596;2024-01-10T06:33:13;-4.40;79.70
52963;DHT22;38827;53.024;6.596;2024-01-10T06:35:55;-4.50;79.70
52963;DHT22;38827;53.024;6.596;2024-01-10T06:38:28;-4.50;79.70
52963;DHT22;38827;53.024;6.596;2024-01-10T06:40:53;-4.50;79.70
52963;DHT22;38827;53.024;6.596;2024-01-10T06:43:19;-4.50;79.70
52963;DHT22;38827;53.024;6.596;2024-01-10T06:45:45;-4.50;79.60
52963;DHT22;38827;53.024;6.596;2024-01-10T06:48:23;-4.50;79.80
52963;DHT22;38827;53.024;6.596;2024-01-10T06:50:52;-4.50;79.80
52963;DHT22;38827;53.024;6.596;2024-01-10T07:03:05;-4.50;79.30
52963;DHT22;38827;53.024;6.596;2024-01-10T07:09:15;-4.50;79.10
52963;DHT22;38827;53.024;6.596;2024-01-10T07:12:05;-4.50;79.20
52963;DHT22;38827;53.024;6.596;2024-01-10T07:15:05;-4.50;79.10
52963;DHT22;38827;53.024;6.596;2024-01-10T07:17:51;-4.50;78.90
52963;DHT22;38827;53.024;6.596;2024-01-10T07:31:20;-4.60;78.90
52963;DHT22;38827;53.024;6.596;2024-01-10T07:36:16;-4.60;78.80
52963;DHT22;38827;53.024;6.596;2024-01-10T07:42:07;-4.60;78.60
52963;DHT22;38827;53.024;6.596;2024-01-10T07:44:38;-4.60;78.80
52963;DHT22;38827;53.024;6.596;2024-01-10T07:47:07;-4.60;78.70
52963;DHT22;38827;53.024;6.596;2024-01-10T07:55:10;-4.60;78.70
52963;DHT22;38827;53.024;6.596;2024-01-10T07:57:41;-4.60;78.60
52963;DHT22;38827;53.024;6.596;2024-01-10T08:00:32;-4.60;78.60
52963;DHT22;38827;53.024;6.596;2024-01-10T08:03:01;-4.50;78.40
52963;DHT22;38827;53.024;6.596;2024-01-10T08:05:34;-4.60;78.50
52963;DHT22;38827;53.024;6.596;2024-01-10T08:08:06;-4.50;78.30
52963;DHT22;38827;53.024;6.596;2024-01-10T08:11:06;-4.50;78.20
52963;DHT22;38827;53.024;6.596;2024-01-10T08:13:38;-4.50;78.10
52963;DHT22;38827;53.024;6.596;2024-01-10T08:16:28;-4.40;78.10
52963;DHT22;38827;53.024;6.596;2024-01-10T08:19:10;-4.40;77.90
52963;DHT22;38827;53.024;6.596;2024-01-10T08:21:36;-4.40;77.90
52963;DHT22;38827;53.024;6.596;2024-01-10T08:24:20;-4.30;77.90
52963;DHT22;38827;53.024;6.596;2024-01-10T08:26:58;-4.20;78.20
52963;DHT22;38827;53.024;6.596;2024-01-10T08:29:33;-3.60;78.60
52963;DHT22;38827;53.024;6.596;2024-01-10T08:32:14;-2.70;78.10
52963;DHT22;38827;53.024;6.596;2024-01-10T08:34:50;-1.70;76.30
52963;DHT22;38827;53.024;6.596;2024-01-10T08:37:53;-0.80;74.30
52963;DHT22;38827;53.024;6.596;2024-01-10T08:40:33;0.10;71.60
52963;DHT22;38827;53.024;6.596;2024-01-10T08:49:58;2.40;66.40
52963;DHT22;38827;53.024;6.596;2024-01-10T08:52:44;3.10;65.10
52963;DHT22;38827;53.024;6.596;2024-01-10T08:55:10;3.60;62.20
52963;DHT22;38827;53.024;6.596;2024-01-10T08:57:37;3.90;63.10
52963;DHT22;38827;53.024;6.596;2024-01-10T09:02:48;4.50;56.70
52963;DHT22;38827;53.024;6.596;2024-01-10T09:05:13;4.80;61.30
52963;DHT22;38827;53.024;6.596;2024-01-10T09:10:49;5.40;56.50
52963;DHT22;38827;53.024;6.596;2024-01-10T09:16:20;5.60;55.00
52963;DHT22;38827;53.024;6.596;2024-01-10T09:23:30;3.50;54.40
52963;DHT22;38827;53.024;6.596;2024-01-10T09:25:56;2.10;60.00
52963;DHT22;38827;53.024;6.596;2024-01-10T09:31:41;1.00;61.10
52963;DHT22;38827;53.024;6.596;2024-01-10T09:34:43;0.60;62.70
52963;DHT22;38827;53.024;6.596;2024-01-10T09:50:32;-0.90;62.30
52963;DHT22;38827;53.024;6.596;2024-01-10T09:59:04;-1.30;62.50
52963;DHT22;38827;53.024;6.596;2024-01-10T10:13:56;-1.50;62.70
52963;DHT22;38827;53.024;6.596;2024-01-10T10:16:46;-1.50;63.00
52963;DHT22;38827;53.024;6.596;2024-01-10T10:19:31;-1.40;62.50
52963;DHT22;38827;53.024;6.596;2024-01-10T10:22:15;-1.40;62.60
52963;DHT22;38827;53.024;6.596;2024-01-10T10:28:12;-1.40;62.60
52963;DHT22;38827;53.024;6.596;2024-01-10T10:30:56;-1.30;62.50
52963;DHT22;38827;53.024;6.596;2024-01-10T10:35:57;-1.40;62.00
52963;DHT22;38827;53.024;6.596;2024-01-10T10:38:29;-1.40;62.10
52963;DHT22;38827;53.024;6.596;2024-01-10T10:41:16;-1.40;62.10
52963;DHT22;38827;53.024;6.596;2024-01-10T10:43:43;-1.40;62.60
52963;DHT22;38827;53.024;6.596;2024-01-10T10:46:10;-1.40;62.80
52963;DHT22;38827;53.024;6.596;2024-01-10T10:48:38;-1.40;62.70
52963;DHT22;38827;53.024;6.596;2024-01-10T10:51:09;-1.40;62.80
52963;DHT22;38827;53.024;6.596;2024-01-10T10:53:48;-1.30;62.80
52963;DHT22;38827;53.024;6.596;2024-01-10T10:56:33;-1.30;62.50
52963;DHT22;38827;53.024;6.596;2024-01-10T10:59:21;-1.20;62.40
52963;DHT22;38827;53.024;6.596;2024-01-10T11:02:09;-1.20;62.30
52963;DHT22;38827;53.024;6.596;2024-01-10T11:04:45;-1.20;62.10
52963;DHT22;38827;53.024;6.596;2024-01-10T11:10:33;-1.10;62.50
52963;DHT22;38827;53.024;6.596;2024-01-10T11:22:19;-1.00;61.70
52963;DHT22;38827;53.024;6.596;2024-01-10T11:24:56;-0.90;61.60
52963;DHT22;38827;53.024;6.596;2024-01-10T11:27:22;-0.90;61.80
52963;DHT22;38827;53.024;6.596;2024-01-10T11:29:55;-0.90;61.50
52963;DHT22;38827;53.024;6.596;2024-01-10T11:35:37;-0.80;61.50
52963;DHT22;38827;53.024;6.596;2024-01-10T11:38:04;-0.80;61.30
52963;DHT22;38827;53.024;6.596;2024-01-10T11:41:02;-0.80;61.40
52963;DHT22;38827;53.024;6.596;2024-01-10T11:43:43;-0.80;60.40
52963;DHT22;38827;53.024;6.596;2024-01-10T11:46:19;-0.80;60.70
52963;DHT22;38827;53.024;6.596;2024-01-10T11:48:45;-0.80;60.90
52963;DHT22;38827;53.024;6.596;2024-01-10T11:51:13;-0.80;61.00
52963;DHT22;38827;53.024;6.596;2024-01-10T11:59:54;-0.70;60.90
52963;DHT22;38827;53.024;6.596;2024-01-10T12:04:55;-0.60;60.30
52963;DHT22;38827;53.024;6.596;2024-01-10T12:07:27;-0.60;60.40
52963;DHT22;38827;53.024;6.596;2024-01-10T12:09:56;-0.60;60.50
52963;DHT22;38827;53.024;6.596;2024-01-10T12:12:28;-0.60;60.60
52963;DHT22;38827;53.024;6.596;2024-01-10T12:14:54;-0.60;60.60
52963;DHT22;38827;53.024;6.596;2024-01-10T12:17:28;-0.50;60.40
52963;DHT22;38827;53.024;6.596;2024-01-10T12:22:54;-0.50;60.20
52963;DHT22;38827;53.024;6.596;2024-01-10T12:32:00;-0.50;59.40
52963;DHT22;38827;53.024;6.596;2024-01-10T12:34:26;-0.50;60.10
52963;DHT22;38827;53.024;6.596;2024-01-10T12:40:04;-0.40;59.70
52963;DHT22;38827;53.024;6.596;2024-01-10T12:42:36;-0.40;59.20
52963;DHT22;38827;53.024;6.596;2024-01-10T12:45:26;-0.40;59.50
52963;DHT22;38827;53.024;6.596;2024-01-10T12:50:49;-0.40;59.60
52963;DHT22;38827;53.024;6.596;2024-01-10T12:53:51;-0.40;59.90
52963;DHT22;38827;53.024;6.596;2024-01-10T12:56:39;-0.30;59.40
52963;DHT22;38827;53.024;6.596;2024-01-10T12:59:17;-0.30;59.50
52963;DHT22;38827;53.024;6.596;2024-01-10T13:01:46;-0.30;59.60
52963;DHT22;38827;53.024;6.596;2024-01-10T13:06:57;-0.30;59.10
52963;DHT22;38827;53.024;6.596;2024-01-10T13:09:27;-0.30;59.30
52963;DHT22;38827;53.024;6.596;2024-01-10T13:11:59;-0.30;59.30
52963;DHT22;38827;53.024;6.596;2024-01-10T13:14:25;-0.30;59.30
52963;DHT22;38827;53.024;6.596;2024-01-10T13:16:59;-0.30;59.40
52963;DHT22;38827;53.024;6.596;2024-01-10T13:19:40;-0.30;59.40
52963;DHT22;38827;53.024;6.596;2024-01-10T13:22:06;-0.20;59.00
52963;DHT22;38827;53.024;6.596;2024-01-10T13:25:03;-0.20;59.30
52963;DHT22;38827;53.024;6.596;2024-01-10T13:27:40;-0.20;59.00
52963;DHT22;38827;53.024;6.596;2024-01-10T13:30:10;-0.20;59.00
52963;DHT22;38827;53.024;6.596;2024-01-10T13:33:00;-0.20;58.90
52963;DHT22;38827;53.024;6.596;2024-01-10T13:35:32;-0.20;59.00
52963;DHT22;38827;53.024;6.596;2024-01-10T13:37:59;-0.20;59.10
52963;DHT22;38827;53.024;6.596;2024-01-10T13:43:13;-0.10;58.90
52963;DHT22;38827;53.024;6.596;2024-01-10T13:54:23;-0.10;57.50
52963;DHT22;38827;53.024;6.596;2024-01-10T13:56:49;-0.20;58.00
52963;DHT22;38827;53.024;6.596;2024-01-10T14:11:18;-0.20;58.40
52963;DHT22;38827;53.024;6.596;2024-01-10T14:13:50;-0.10;58.30
52963;DHT22;38827;53.024;6.596;2024-01-10T14:16:20;-0.10;58.80
52963;DHT22;38827;53.024;6.596;2024-01-10T14:18:49;-0.10;58.90
52963;DHT22;38827;53.024;6.596;2024-01-10T14:21:14;-0.10;58.80
52963;DHT22;38827;53.024;6.596;2024-01-10T14:23:43;-0.10;59.10
52963;DHT22;38827;53.024;6.596;2024-01-10T14:26:12;-0.10;59.00
52963;DHT22;38827;53.024;6.596;2024-01-10T14:28:47;-0.10;59.20
52963;DHT22;38827;53.024;6.596;2024-01-10T14:42:26;-0.30;60.00
52963;DHT22;38827;53.024;6.596;2024-01-10T14:45:21;-0.30;60.40
52963;DHT22;38827;53.024;6.596;2024-01-10T14:47:56;-0.40;60.90
52963;DHT22;38827;53.024;6.596;2024-01-10T14:50:32;-0.40;61.30
52963;DHT22;38827;53.024;6.596;2024-01-10T14:53:04;-0.40;61.60
52963;DHT22;38827;53.024;6.596;2024-01-10T14:58:00;-0.50;62.40
52963;DHT22;38827;53.024;6.596;2024-01-10T15:03:24;-0.50;62.90
52963;DHT22;38827;53.024;6.596;2024-01-10T15:08:42;-0.60;63.30
52963;DHT22;38827;53.024;6.596;2024-01-10T15:11:17;-0.60;63.50
52963;DHT22;38827;53.024;6.596;2024-01-10T15:13:44;-0.60;63.60
52963;DHT22;38827;53.024;6.596;2024-01-10T15:16:16;-0.70;63.90
52963;DHT22;38827;53.024;6.596;2024-01-10T15:18:42;-0.70;64.00
52963;DHT22;38827;53.024;6.596;2024-01-10T15:21:09;-0.80;64.20
52963;DHT22;38827;53.024;6.596;2024-01-10T15:23:36;-0.80;64.30
52963;DHT22;38827;53.024;6.596;2024-01-10T15:26:01;-0.90;64.60
52963;DHT22;38827;53.024;6.596;2024-01-10T15:31:25;-0.90;64.80
52963;DHT22;38827;53.024;6.596;2024-01-10T15:33:57;-1.00;64.90
52963;DHT22;38827;53.024;6.596;2024-01-10T15:39:24;-1.00;65.50
52963;DHT22;38827;53.024;6.596;2024-01-10T15:41:59;-1.10;65.60
52963;DHT22;38827;53.024;6.596;2024-01-10T15:44:28;-1.10;65.80
52963;DHT22;38827;53.024;6.596;2024-01-10T15:47:13;-1.10;65.80
52963;DHT22;38827;53.024;6.596;2024-01-10T15:53:04;-1.20;66.20
52963;DHT22;38827;53.024;6.596;2024-01-10T15:58:22;-1.30;66.40
52963;DHT22;38827;53.024;6.596;2024-01-10T16:04:07;-1.40;66.50
52963;DHT22;38827;53.024;6.596;2024-01-10T16:17:47;-1.60;66.90
52963;DHT22;38827;53.024;6.596;2024-01-10T16:23:28;-1.70;67.30
52963;DHT22;38827;53.024;6.596;2024-01-10T16:26:03;-1.80;67.30
52963;DHT22;38827;53.024;6.596;2024-01-10T16:28:29;-1.80;67.50
52963;DHT22;38827;53.024;6.596;2024-01-10T16:30:58;-1.80;67.70
52963;DHT22;38827;53.024;6.596;2024-01-10T16:36:29;-1.90;68.00
52963;DHT22;38827;53.024;6.596;2024-01-10T16:42:48;-1.90;68.20
52963;DHT22;38827;53.024;6.596;2024-01-10T16:45:20;-2.00;68.30
52963;DHT22;38827;53.024;6.596;2024-01-10T16:51:14;-2.00;68.50
52963;DHT22;38827;53.024;6.596;2024-01-10T16:53:44;-2.00;68.60
52963;DHT22;38827;53.024;6.596;2024-01-10T16:56:13;-2.10;69.10
52963;DHT22;38827;53.024;6.596;2024-01-10T17:02:43;-2.10;68.90
52963;DHT22;38827;53.024;6.596;2024-01-10T17:05:09;-2.20;68.90
52963;DHT22;38827;53.024;6.596;2024-01-10T17:07:43;-2.20;69.20
52963;DHT22;38827;53.024;6.596;2024-01-10T17:13:26;-2.20;69.40
52963;DHT22;38827;53.024;6.596;2024-01-10T17:16:04;-2.30;69.60
52963;DHT22;38827;53.024;6.596;2024-01-10T17:18:31;-2.30;69.50
52963;DHT22;38827;53.024;6.596;2024-01-10T17:37:04;-2.40;70.20
52963;DHT22;38827;53.024;6.596;2024-01-10T17:43:25;-2.50;70.20
52963;DHT22;38827;53.024;6.596;2024-01-10T17:59:27;-2.60;70.80
52963;DHT22;38827;53.024;6.596;2024-01-10T18:01:53;-2.60;70.80
52963;DHT22;38827;53.024;6.596;2024-01-10T18:14:24;-2.70;71.30
52963;DHT22;38827;53.024;6.596;2024-01-10T18:16:59;-2.70;71.50
52963;DHT22;38827;53.024;6.596;2024-01-10T18:22:28;-2.80;71.70
52963;DHT22;38827;53.024;6.596;2024-01-10T18:35:13;-2.80;72.10
52963;DHT22;38827;53.024;6.596;2024-01-10T22:52:35;-4.20;79.30
52963;DHT22;38827;53.024;6.596;2024-01-10T22:55:06;-4.20;79.60
52963;DHT22;38827;53.024;6.596;2024-01-10T22:58:08;-4.30;79.60
52963;DHT22;38827;53.024;6.596;2024-01-10T23:01:02;-4.20;79.70
52963;DHT22;38827;53.024;6.596;2024-01-10T23:03:34;-4.20;79.70
52963;DHT22;38827;53.024;6.596;2024-01-10T23:06:29;-4.20;79.80
52963;DHT22;38827;53.024;6.596;2024-01-10T23:08:58;-4.30;79.90
52963;DHT22;38827;53.024;6.596;2024-01-10T23:11:29;-4.30;79.90
52963;DHT22;38827;53.024;6.596;2024-01-10T23:17:42;-4.30;80.00
52963;DHT22;38827;53.024;6.596;2024-01-10T23:20:28;-4.30;80.00
52963;DHT22;38827;53.024;6.596;2024-01-10T23:23:11;-4.40;80.10
52963;DHT22;38827;53.024;6.596;2024-01-10T23:25:48;-4.40;80.10
52963;DHT22;38827;53.024;6.596;2024-01-10T23:28:36;-4.40;80.20
52963;DHT22;38827;53.024;6.596;2024-01-10T23:31:02;-4.40;80.30
52963;DHT22;38827;53.024;6.596;2024-01-10T23:33:46;-4.40;80.30
52963;DHT22;38827;53.024;6.596;2024-01-10T23:36:24;-4.40;80.30
52963;DHT22;38827;53.024;6.596;2024-01-10T23:38:56;-4.30;80.30
52963;DHT22;38827;53.024;6.596;2024-01-10T23:41:40;-4.30;80.40
52963;DHT22;38827;53.024;6.596;2024-01-10T23:44:29;-4.30;80.30
52963;DHT22;38827;53.024;6.596;2024-01-10T23:47:04;-4.40;80.30
52963;DHT22;38827;53.024;6.596;2024-01-10T23:57:16;-4.30;80.20
52963;DHT22;38827;53.024;6.596;2024-01-10T23:59:44;-4.30;80.20
